Time;durP1;ratioP1;P1;durP2;ratioP2;P2;SDS_P1;SDS_P2;PMS_P1;PMS_P2;Temp;Humidity;BMP_temperature;BMP_pressure;BME280_temperature;BME280_humidity;BME280_pressure;Samples;Min_cycle;Max_cycle;Signal;HPM_P1;HPM_P2
2023/06/24 00:00:11;;;;;;;15.50;12.35;;;18.30;99.90;;;;;;5017282;28;20220;-72
2023/06/24 00:02:37;;;;;;;13.68;11.40;;;18.30;99.90;;;;;;5004328;28;20178;-72
2023/06/24 00:05:04;;;;;;;13.68;12.05;;;18.30;99.90;;;;;;5019028;28;20170;-72
2023/06/24 00:07:30;;;;;;;16.08;12.80;;;18.30;99.90;;;;;;5005803;28;20208;-71
2023/06/24 00:09:56;;;;;;;19.35;14.70;;;18.30;99.90;;;;;;5033053;28;20705;-72
2023/06/24 00:12:21;;;;;;;16.58;14.70;;;18.30;99.90;;;;;;5022192;28;20209;-72
2023/06/24 00:14:47;;;;;;;16.77;13.95;;;18.30;99.90;;;;;;5030611;28;20183;-71
2023/06/24 00:17:13;;;;;;;18.42;15.27;;;18.20;99.90;;;;;;5030763;28;20245;-72
2023/06/24 00:19:39;;;;;;;20.42;15.23;;;18.20;99.90;;;;;;5026669;28;20208;-72
2023/06/24 00:22:05;;;;;;;18.63;16.15;;;18.20;99.90;;;;;;5011179;28;20200;-71
2023/06/24 00:24:30;;;;;;;20.70;16.38;;;18.20;99.90;;;;;;5006954;28;20684;-71
2023/06/24 00:26:56;;;;;;;24.27;17.52;;;18.20;99.90;;;;;;5028393;28;20204;-72
2023/06/24 00:29:22;;;;;;;25.42;16.63;;;18.10;99.90;;;;;;5024589;28;20510;-72
2023/06/24 00:31:48;;;;;;;21.77;16.98;;;18.10;99.90;;;;;;5001864;28;20209;-72
2023/06/24 00:34:14;;;;;;;21.38;18.05;;;18.10;99.90;;;;;;5025002;28;20213;-71
2023/06/24 00:36:40;;;;;;;22.63;17.45;;;18.00;99.90;;;;;;5020906;28;20254;-72
2023/06/24 00:39:06;;;;;;;20.25;16.67;;;18.00;99.90;;;;;;5022150;28;20205;-71
2023/06/24 00:41:33;;;;;;;23.92;16.45;;;17.90;99.90;;;;;;5024021;28;20551;-72
2023/06/24 00:43:59;;;;;;;20.67;16.35;;;17.90;99.90;;;;;;5022305;28;20196;-71
2023/06/24 00:46:26;;;;;;;21.60;15.68;;;17.90;99.90;;;;;;5023633;28;20209;-72
2023/06/24 00:48:56;;;;;;;17.15;15.15;;;17.80;99.90;;;;;;5010623;28;20212;-72
2023/06/24 00:51:26;;;;;;;18.48;15.13;;;17.80;99.90;;;;;;5025605;28;20266;-72
2023/06/24 00:53:52;;;;;;;21.00;16.17;;;17.80;99.90;;;;;;5026862;28;20200;-72
2023/06/24 00:56:21;;;;;;;18.67;15.68;;;17.80;99.90;;;;;;5026776;28;20238;-72
2023/06/24 00:58:47;;;;;;;18.63;15.57;;;17.80;99.90;;;;;;5027320;28;20200;-72
2023/06/24 01:01:14;;;;;;;18.63;15.02;;;17.80;99.90;;;;;;5022519;28;20590;-71
2023/06/24 01:03:40;;;;;;;19.58;15.65;;;17.80;99.90;;;;;;5007896;28;20207;-71
2023/06/24 01:06:06;;;;;;;19.67;15.65;;;17.80;99.90;;;;;;5004696;28;20300;-71
2023/06/24 01:08:32;;;;;;;20.88;16.40;;;17.70;99.90;;;;;;5006430;28;20177;-71
2023/06/24 01:10:58;;;;;;;20.90;16.17;;;17.70;99.90;;;;;;5026312;28;20192;-71
2023/06/24 01:13:23;;;;;;;19.08;15.43;;;17.60;99.90;;;;;;5025800;28;20201;-71
2023/06/24 01:15:49;;;;;;;20.73;15.75;;;17.60;99.90;;;;;;5025349;28;20211;-71
2023/06/24 01:18:32;;;;;;;18.45;15.32;;;17.60;99.90;;;;;;5004212;28;20201;-71
2023/06/24 01:21:18;;;;;;;18.15;14.32;;;17.60;99.90;;;;;;5022541;28;20230;-71
2023/06/24 01:24:26;;;;;;;17.15;14.75;;;17.60;99.90;;;;;;5024127;28;20698;-71
2023/06/24 01:27:30;;;;;;;19.38;14.48;;;17.60;99.90;;;;;;5025023;28;20219;-71
2023/06/24 01:30:27;;;;;;;15.70;14.02;;;17.50;99.90;;;;;;5026616;28;20216;-71
2023/06/24 01:33:03;;;;;;;17.77;14.75;;;17.40;99.90;;;;;;5022753;28;20295;-71
2023/06/24 01:35:33;;;;;;;18.13;13.88;;;17.40;99.90;;;;;;5019555;28;20180;-71
2023/06/24 01:38:03;;;;;;;17.42;13.85;;;17.40;99.90;;;;;;5023319;28;20290;-71
2023/06/24 01:40:37;;;;;;;18.77;13.60;;;17.40;99.90;;;;;;5007074;28;20217;-71
2023/06/24 01:43:05;;;;;;;16.17;13.60;;;17.30;99.90;;;;;;5024242;28;20215;-71
2023/06/24 01:45:52;;;;;;;17.88;14.90;;;17.30;99.90;;;;;;5024553;28;20203;-71
2023/06/24 01:48:28;;;;;;;17.05;14.32;;;17.30;99.90;;;;;;5006705;28;20220;-72
2023/06/24 01:51:13;;;;;;;16.83;14.15;;;17.20;99.90;;;;;;5022161;28;20215;-69
2023/06/24 01:53:42;;;;;;;20.27;13.30;;;17.30;99.90;;;;;;5022469;28;20533;-71
2023/06/24 01:56:10;;;;;;;16.92;13.05;;;17.20;99.90;;;;;;5021792;28;20169;-71
2023/06/24 01:58:37;;;;;;;17.27;13.40;;;17.20;99.90;;;;;;5005602;28;20705;-71
2023/06/24 02:01:04;;;;;;;17.40;12.95;;;17.20;99.90;;;;;;5021019;28;20243;-71
2023/06/24 02:03:32;;;;;;;18.05;13.98;;;17.20;99.90;;;;;;5025862;28;20235;-71
2023/06/24 02:06:00;;;;;;;17.45;13.52;;;17.20;99.90;;;;;;5013291;28;20212;-71
2023/06/24 02:08:30;;;;;;;16.85;13.50;;;17.20;99.90;;;;;;5026291;28;20183;-71
2023/06/24 02:10:58;;;;;;;14.80;12.65;;;17.20;99.90;;;;;;5030083;28;20204;-71
2023/06/24 02:13:24;;;;;;;16.17;12.90;;;17.20;99.90;;;;;;5022708;28;20209;-71
2023/06/24 02:15:51;;;;;;;14.07;12.40;;;17.20;99.90;;;;;;5024875;28;20204;-71
2023/06/24 02:18:19;;;;;;;16.50;12.82;;;17.20;99.90;;;;;;5025994;28;20562;-71
2023/06/24 02:20:47;;;;;;;16.67;13.10;;;17.20;99.90;;;;;;5022847;28;20197;-71
2023/06/24 02:23:13;;;;;;;16.83;12.68;;;17.20;99.90;;;;;;5022550;28;20219;-69
2023/06/24 02:25:40;;;;;;;17.83;12.43;;;17.20;99.90;;;;;;5023216;28;20275;-71
2023/06/24 02:28:07;;;;;;;15.20;12.95;;;17.20;99.90;;;;;;5022780;28;20684;-71
2023/06/24 02:30:36;;;;;;;15.75;12.98;;;17.10;99.90;;;;;;5024927;28;20217;-71
2023/06/24 02:33:02;;;;;;;19.83;13.05;;;17.10;99.90;;;;;;5007032;28;20208;-71
2023/06/24 02:35:27;;;;;;;18.52;12.32;;;17.00;99.90;;;;;;5022274;28;20176;-71
2023/06/24 02:37:53;;;;;;;17.27;12.55;;;17.00;99.90;;;;;;5022489;28;20741;-70
2023/06/24 02:40:19;;;;;;;16.40;11.98;;;17.10;99.90;;;;;;5001994;28;20259;-71
2023/06/24 02:42:45;;;;;;;19.65;12.70;;;17.00;99.90;;;;;;5026521;28;20220;-71
2023/06/24 02:45:11;;;;;;;16.52;12.27;;;17.10;99.90;;;;;;5026947;28;20239;-71
2023/06/24 02:47:57;;;;;;;12.90;11.07;;;17.00;99.90;;;;;;5011304;28;20172;-74
2023/06/24 02:50:24;;;;;;;23.85;14.32;;;17.00;99.90;;;;;;4988846;28;20199;-73
2023/06/24 02:52:51;;;;;;;17.83;11.13;;;17.00;99.90;;;;;;5007680;28;20706;-74
2023/06/24 02:55:17;;;;;;;15.02;11.77;;;17.00;99.90;;;;;;5005294;28;20208;-70
2023/06/24 02:57:43;;;;;;;14.40;10.70;;;17.00;99.90;;;;;;5022887;28;20216;-70
2023/06/24 03:00:13;;;;;;;15.82;11.32;;;17.00;99.90;;;;;;5025001;28;20599;-72
2023/06/24 03:02:39;;;;;;;12.77;10.98;;;17.00;99.90;;;;;;5019875;28;20169;-70
2023/06/24 03:05:07;;;;;;;14.07;10.38;;;16.90;99.90;;;;;;5018113;28;20177;-70
2023/06/24 03:07:36;;;;;;;14.95;10.70;;;16.90;99.90;;;;;;5004344;28;20220;-70
2023/06/24 03:10:05;;;;;;;15.00;11.10;;;16.90;99.90;;;;;;5019460;28;20721;-70
2023/06/24 03:12:32;;;;;;;16.63;11.88;;;16.90;99.90;;;;;;5000696;28;20223;-73
2023/06/24 03:14:57;;;;;;;14.93;10.98;;;16.90;99.90;;;;;;5002616;28;20210;-73
2023/06/24 03:17:24;;;;;;;13.80;10.32;;;17.00;99.90;;;;;;5020063;28;20189;-73
2023/06/24 03:19:50;;;;;;;12.27;9.82;;;17.00;99.90;;;;;;5017395;28;20209;-73
2023/06/24 03:22:17;;;;;;;17.40;10.57;;;17.00;99.90;;;;;;5021996;28;20204;-70
2023/06/24 03:24:43;;;;;;;15.40;10.93;;;17.00;99.90;;;;;;5014652;28;20224;-71
2023/06/24 03:27:08;;;;;;;17.25;10.65;;;16.90;99.90;;;;;;5022119;28;20349;-71
2023/06/24 03:29:34;;;;;;;18.23;11.68;;;17.00;99.90;;;;;;5017996;28;20246;-71
2023/06/24 03:32:00;;;;;;;13.77;10.10;;;17.00;99.90;;;;;;5025080;28;20200;-71
2023/06/24 03:34:27;;;;;;;13.43;9.73;;;17.10;99.90;;;;;;5005321;28;20278;-71
2023/06/24 03:36:54;;;;;;;14.88;11.15;;;17.10;99.90;;;;;;5022250;28;20211;-71
2023/06/24 03:39:20;;;;;;;13.65;10.07;;;17.20;99.90;;;;;;5003289;28;20201;-71
2023/06/24 03:41:46;;;;;;;13.98;11.05;;;17.20;99.90;;;;;;5020575;28;20240;-70
2023/06/24 03:44:12;;;;;;;12.30;10.65;;;17.30;99.90;;;;;;5008002;28;20196;-71
2023/06/24 03:46:38;;;;;;;12.73;10.68;;;17.30;99.90;;;;;;5008466;28;20258;-71
2023/06/24 03:49:04;;;;;;;15.48;10.82;;;17.30;99.90;;;;;;5027990;28;20196;-71
2023/06/24 03:51:29;;;;;;;12.75;9.50;;;17.40;99.90;;;;;;5022844;28;20204;-72
2023/06/24 03:53:55;;;;;;;12.90;10.82;;;17.40;99.90;;;;;;5007067;28;20200;-71
2023/06/24 03:56:21;;;;;;;14.73;11.10;;;17.60;99.90;;;;;;5022183;28;20180;-72
2023/06/24 03:58:46;;;;;;;15.55;10.10;;;18.40;99.90;;;;;;5020821;28;20211;-71
2023/06/24 04:01:12;;;;;;;12.85;9.15;;;19.20;99.90;;;;;;5021860;28;20709;-71
2023/06/24 04:03:37;;;;;;;19.60;9.80;;;19.30;99.90;;;;;;5021343;28;20227;-71
2023/06/24 04:06:03;;;;;;;12.95;9.85;;;19.10;99.90;;;;;;5024193;28;20227;-70
2023/06/24 04:08:29;;;;;;;12.60;9.82;;;18.80;99.90;;;;;;5020695;28;20172;-70
2023/06/24 04:10:55;;;;;;;11.30;9.02;;;18.50;99.90;;;;;;5008874;28;20261;-70
2023/06/24 04:13:21;;;;;;;16.60;9.80;;;18.30;99.90;;;;;;5021185;28;20201;-72
2023/06/24 04:15:47;;;;;;;13.10;9.57;;;18.20;99.90;;;;;;5025524;28;20741;-71
2023/06/24 04:18:12;;;;;;;10.20;8.90;;;18.40;99.90;;;;;;5023614;28;20209;-71
2023/06/24 04:20:38;;;;;;;13.98;9.57;;;19.40;99.90;;;;;;5023920;28;20699;-72
2023/06/24 04:23:04;;;;;;;10.38;8.30;;;21.00;99.90;;;;;;5025904;28;20164;-71
2023/06/24 04:25:30;;;;;;;11.35;7.85;;;21.30;99.90;;;;;;5020863;28;20283;-72
2023/06/24 04:27:56;;;;;;;13.10;8.85;;;22.40;99.90;;;;;;5024942;28;20258;-71
2023/06/24 04:30:21;;;;;;;10.55;7.90;;;22.70;99.90;;;;;;5020336;28;20627;-71
2023/06/24 04:32:47;;;;;;;11.82;7.68;;;23.40;99.90;;;;;;5025015;28;20179;-72
2023/06/24 04:35:12;;;;;;;12.68;7.75;;;24.30;99.90;;;;;;5022186;28;20224;-71
2023/06/24 04:37:38;;;;;;;9.98;7.78;;;24.20;99.90;;;;;;5025091;28;20230;-71
2023/06/24 04:40:04;;;;;;;9.73;7.97;;;24.30;99.90;;;;;;5022855;28;20246;-71
2023/06/24 04:42:30;;;;;;;9.07;6.85;;;24.40;99.90;;;;;;5021612;23;20216;-71
2023/06/24 04:44:55;;;;;;;9.70;7.50;;;24.30;99.90;;;;;;4998293;28;20205;-71
2023/06/24 04:47:21;;;;;;;10.82;7.15;;;24.60;99.90;;;;;;5015956;28;20595;-71
2023/06/24 04:49:47;;;;;;;9.32;7.72;;;24.80;99.90;;;;;;4996675;28;20255;-71
2023/06/24 04:52:14;;;;;;;9.20;7.50;;;25.30;99.90;;;;;;5003132;28;20217;-71
2023/06/24 04:54:40;;;;;;;8.68;7.20;;;25.10;99.90;;;;;;5002509;28;20209;-71
2023/06/24 04:57:08;;;;;;;8.55;7.55;;;25.50;99.90;;;;;;4985028;28;20213;-72
2023/06/24 04:59:34;;;;;;;10.50;7.93;;;25.80;99.90;;;;;;4999275;28;20205;-72
2023/06/24 05:01:59;;;;;;;10.75;8.88;;;26.30;99.90;;;;;;4987036;28;20706;-71
2023/06/24 05:04:25;;;;;;;9.75;8.38;;;26.50;99.90;;;;;;5000820;28;20237;-73
2023/06/24 05:06:51;;;;;;;11.25;7.70;;;26.70;99.90;;;;;;5004006;28;20209;-72
2023/06/24 05:09:17;;;;;;;8.45;7.38;;;26.20;99.90;;;;;;5001500;28;20301;-72
2023/06/24 05:11:43;;;;;;;8.77;6.95;;;25.00;99.90;;;;;;5002418;28;20177;-72
2023/06/24 05:14:08;;;;;;;8.48;7.28;;;24.50;99.90;;;;;;5002053;28;20193;-72
2023/06/24 05:16:34;;;;;;;12.27;8.70;;;24.50;99.90;;;;;;5004626;28;20678;-72
2023/06/24 05:19:00;;;;;;;10.15;7.97;;;24.40;99.90;;;;;;4994631;28;20202;-72
2023/06/24 05:21:25;;;;;;;9.57;6.75;;;24.90;99.90;;;;;;5002407;28;20307;-72
2023/06/24 05:23:51;;;;;;;8.48;7.22;;;25.10;99.90;;;;;;5003308;28;20272;-72
2023/06/24 05:26:16;;;;;;;11.82;8.93;;;25.40;99.90;;;;;;4986214;28;20364;-72
2023/06/24 05:28:42;;;;;;;8.90;7.05;;;25.60;99.90;;;;;;4983980;28;20375;-72
2023/06/24 05:31:08;;;;;;;10.70;6.95;;;25.70;99.90;;;;;;4986826;28;20209;-73
2023/06/24 05:33:33;;;;;;;13.25;7.90;;;24.90;99.90;;;;;;4999401;28;20845;-72
2023/06/24 05:35:59;;;;;;;8.95;6.97;;;24.30;99.90;;;;;;5003864;28;20212;-72
2023/06/24 05:38:24;;;;;;;8.57;7.30;;;23.60;99.90;;;;;;5001343;28;20201;-71
2023/06/24 05:40:50;;;;;;;8.07;7.28;;;23.50;99.90;;;;;;5003936;28;20212;-72
2023/06/24 05:43:16;;;;;;;8.68;7.63;;;22.80;99.90;;;;;;5002392;28;20224;-72
2023/06/24 05:45:41;;;;;;;9.70;7.80;;;22.60;99.90;;;;;;5000810;28;20618;-72
2023/06/24 05:48:07;;;;;;;9.00;7.95;;;22.50;99.90;;;;;;4984694;28;20288;-72
2023/06/24 05:50:33;;;;;;;12.73;7.88;;;22.50;99.90;;;;;;4985043;28;20615;-74
2023/06/24 05:52:58;;;;;;;9.68;7.63;;;23.20;99.90;;;;;;5003301;28;20629;-72
2023/06/24 05:55:24;;;;;;;12.63;7.60;;;23.70;99.90;;;;;;4995715;28;20586;-73
2023/06/24 05:57:49;;;;;;;10.10;7.78;;;23.90;99.90;;;;;;5005610;28;20585;-73
2023/06/24 06:00:18;;;;;;;8.10;6.95;;;24.60;99.90;;;;;;4985475;28;20221;-73
2023/06/24 06:02:43;;;;;;;9.95;7.30;;;26.10;99.90;;;;;;4999098;28;20244;-73
2023/06/24 06:05:09;;;;;;;8.75;7.03;;;27.00;99.90;;;;;;5004571;28;20177;-73
2023/06/24 06:07:37;;;;;;;9.13;7.38;;;27.40;99.90;;;;;;4985229;28;20348;-73
2023/06/24 06:10:03;;;;;;;7.75;6.95;;;28.00;99.90;;;;;;5003984;28;20598;-73
2023/06/24 06:12:28;;;;;;;8.50;6.85;;;28.10;99.90;;;;;;5000115;28;20201;-73
2023/06/24 06:14:54;;;;;;;8.98;7.40;;;28.70;99.90;;;;;;5003130;28;20201;-73
2023/06/24 06:17:20;;;;;;;8.15;7.35;;;29.50;99.90;;;;;;4984569;28;20180;-73
2023/06/24 06:19:46;;;;;;;8.80;6.72;;;29.90;99.90;;;;;;4998686;28;20807;-73
2023/06/24 06:22:13;;;;;;;10.13;6.65;;;30.50;99.90;;;;;;5001936;28;20431;-73
2023/06/24 06:24:39;;;;;;;7.25;6.65;;;30.70;99.90;;;;;;4999089;28;20212;-73
2023/06/24 06:27:09;;;;;;;7.55;6.90;;;31.20;99.90;;;;;;4984247;28;20196;-73
2023/06/24 06:29:34;;;;;;;7.78;6.90;;;31.00;99.90;;;;;;4982714;28;20208;-73
2023/06/24 06:32:00;;;;;;;10.40;7.93;;;31.40;99.90;;;;;;4980943;28;20211;-73
2023/06/24 06:34:26;;;;;;;6.90;6.20;;;31.80;99.90;;;;;;4981158;28;20342;-73
2023/06/24 06:36:51;;;;;;;5.70;5.20;;;32.50;99.90;;;;;;4981489;28;20271;-73
2023/06/24 06:39:17;;;;;;;8.10;6.20;;;32.30;99.90;;;;;;4996080;28;20216;-74
2023/06/24 06:41:43;;;;;;;9.57;5.88;;;32.90;99.90;;;;;;5002128;28;20172;-71
2023/06/24 06:44:08;;;;;;;6.47;5.88;;;32.90;99.90;;;;;;4989032;28;20222;-72
2023/06/24 06:46:34;;;;;;;6.53;5.82;;;33.20;99.90;;;;;;4984181;28;20206;-73
2023/06/24 06:48:59;;;;;;;7.60;6.22;;;33.10;99.90;;;;;;5003540;28;20203;-72
2023/06/24 06:51:25;;;;;;;6.32;5.70;;;33.20;99.90;;;;;;5004554;28;20791;-73
2023/06/24 06:53:51;;;;;;;7.47;5.78;;;33.60;99.10;;;;;;4983973;28;20209;-72
2023/06/24 06:56:18;;;;;;;6.35;5.75;;;33.40;97.70;;;;;;4984478;28;20578;-72
2023/06/24 06:58:44;;;;;;;7.70;5.47;;;32.40;99.00;;;;;;4998233;28;20205;-73
2023/06/24 07:01:09;;;;;;;7.75;5.20;;;32.50;99.90;;;;;;4999601;28;20651;-72
2023/06/24 07:03:35;;;;;;;5.28;4.78;;;32.80;99.10;;;;;;4984046;28;20204;-72
2023/06/24 07:06:01;;;;;;;6.18;5.00;;;33.20;97.90;;;;;;5001544;28;20212;-73
2023/06/24 07:08:26;;;;;;;5.25;4.75;;;32.60;97.70;;;;;;4999240;28;20691;-72
2023/06/24 07:10:52;;;;;;;5.50;5.00;;;33.00;96.80;;;;;;5001855;28;20919;-72
2023/06/24 07:13:18;;;;;;;7.18;5.03;;;32.60;97.30;;;;;;4986091;28;20236;-72
2023/06/24 07:15:43;;;;;;;5.72;4.30;;;32.80;97.10;;;;;;4989513;28;20670;-73
2023/06/24 07:18:09;;;;;;;5.13;4.65;;;33.60;96.50;;;;;;5004096;28;20207;-71
2023/06/24 07:20:35;;;;;;;6.30;4.75;;;34.20;94.50;;;;;;4983852;28;20213;-71
2023/06/24 07:23:00;;;;;;;5.22;4.72;;;34.40;92.70;;;;;;5009731;28;20185;-71
2023/06/24 07:25:28;;;;;;;5.78;5.22;;;34.30;93.90;;;;;;5006891;28;20210;-71
2023/06/24 07:27:53;;;;;;;7.03;4.88;;;34.40;94.00;;;;;;5008805;28;20670;-71
2023/06/24 07:30:19;;;;;;;4.85;4.40;;;34.30;93.20;;;;;;4988129;28;20299;-72
2023/06/24 07:32:45;;;;;;;5.32;4.25;;;34.60;92.20;;;;;;5002952;28;20199;-72
2023/06/24 07:35:11;;;;;;;5.35;4.47;;;34.70;91.90;;;;;;5005119;28;20688;-72
2023/06/24 07:37:38;;;;;;;6.25;5.00;;;34.80;91.00;;;;;;5004148;28;20251;-72
2023/06/24 07:40:05;;;;;;;4.75;4.32;;;35.00;90.50;;;;;;5001228;28;20874;-73
2023/06/24 07:42:31;;;;;;;6.47;4.32;;;35.60;88.40;;;;;;5005450;28;20211;-72
2023/06/24 07:44:57;;;;;;;8.27;4.70;;;35.20;90.00;;;;;;5004155;28;20595;-72
2023/06/24 07:47:22;;;;;;;5.13;4.32;;;34.60;90.50;;;;;;5004058;28;20550;-72
2023/06/24 07:49:48;;;;;;;5.32;4.80;;;32.80;92.90;;;;;;5002635;28;20671;-72
2023/06/24 07:52:13;;;;;;;7.70;6.15;;;32.20;92.70;;;;;;5008331;28;20556;-72
2023/06/24 07:54:39;;;;;;;7.93;5.60;;;31.20;95.20;;;;;;4982997;28;20204;-72
2023/06/24 07:57:05;;;;;;;8.85;7.20;;;31.50;94.50;;;;;;5004931;28;20714;-71
2023/06/24 07:59:30;;;;;;;5.60;5.10;;;31.70;94.90;;;;;;4987544;28;20177;-72
2023/06/24 08:01:56;;;;;;;6.32;5.72;;;32.10;94.60;;;;;;5007950;28;20165;-72
2023/06/24 08:04:21;;;;;;;7.03;5.25;;;31.50;94.30;;;;;;4993347;28;20235;-76
2023/06/24 08:06:47;;;;;;;6.22;4.82;;;30.30;96.70;;;;;;5002777;28;20209;-71
2023/06/24 08:09:13;;;;;;;4.85;4.22;;;30.60;98.60;;;;;;5004019;28;20683;-73
2023/06/24 08:11:38;;;;;;;4.97;4.47;;;30.30;98.60;;;;;;4986184;28;20170;-73
2023/06/24 08:14:04;;;;;;;5.25;4.70;;;29.60;98.20;;;;;;4991745;28;20193;-73
2023/06/24 08:16:30;;;;;;;5.32;4.25;;;30.00;99.40;;;;;;5003087;28;20319;-71
2023/06/24 08:18:55;;;;;;;5.93;4.95;;;31.00;99.70;;;;;;4988320;28;20208;-71
2023/06/24 08:21:21;;;;;;;5.82;4.88;;;32.10;97.30;;;;;;5004852;28;20212;-71
2023/06/24 08:23:46;;;;;;;4.60;4.07;;;32.70;95.00;;;;;;5002940;28;20197;-71
2023/06/24 08:29:52;;;;;;;5.65;4.60;;;31.80;94.30;;;;;;4998052;28;20258;-72
2023/06/24 08:32:18;;;;;;;5.53;4.80;;;32.10;95.40;;;;;;4993918;28;20196;-73
2023/06/24 08:34:43;;;;;;;4.63;4.20;;;31.90;95.00;;;;;;4987888;28;20200;-73
2023/06/24 08:37:09;;;;;;;7.10;3.95;;;32.00;94.90;;;;;;4991470;28;20756;-73
2023/06/24 08:39:35;;;;;;;5.20;4.68;;;32.00;93.70;;;;;;4985804;28;20201;-73
2023/06/24 08:42:02;;;;;;;5.05;4.10;;;32.50;94.70;;;;;;5007494;28;20667;-73
2023/06/24 08:44:28;;;;;;;4.50;3.80;;;32.80;93.00;;;;;;4989248;28;20260;-73
2023/06/24 08:46:53;;;;;;;5.18;4.40;;;32.80;93.50;;;;;;5001874;28;20788;-72
2023/06/24 08:49:22;;;;;;;6.18;4.80;;;32.80;93.90;;;;;;5007116;28;20200;-73
2023/06/24 08:51:55;;;;;;;7.43;5.70;;;33.30;92.60;;;;;;5003882;28;20205;-73
2023/06/24 08:54:22;;;;;;;5.75;5.07;;;33.80;92.50;;;;;;5001699;28;20196;-73
2023/06/24 08:56:48;;;;;;;4.70;4.25;;;33.20;93.00;;;;;;5000877;28;20181;-73
2023/06/24 08:59:19;;;;;;;6.20;4.57;;;33.20;91.70;;;;;;5004791;28;20192;-73
2023/06/24 09:01:46;;;;;;;5.93;4.40;;;32.10;92.60;;;;;;5003548;28;20217;-72
2023/06/24 09:04:11;;;;;;;5.25;3.92;;;32.00;91.80;;;;;;5003244;28;20204;-73
2023/06/24 09:06:37;;;;;;;6.88;4.13;;;32.10;92.70;;;;;;5000947;28;20268;-73
2023/06/24 09:09:03;;;;;;;6.60;4.93;;;32.30;93.70;;;;;;4983629;28;20743;-73
2023/06/24 09:11:29;;;;;;;6.50;4.70;;;32.30;92.80;;;;;;5001214;28;20569;-73
2023/06/24 09:13:56;;;;;;;4.32;3.75;;;31.70;92.80;;;;;;5007625;28;20287;-72
2023/06/24 09:16:22;;;;;;;5.43;4.53;;;31.50;94.70;;;;;;5006864;28;20578;-73
2023/06/24 09:18:49;;;;;;;7.93;4.50;;;31.30;94.40;;;;;;4996606;28;20209;-73
2023/06/24 09:21:25;;;;;;;4.18;3.53;;;31.50;93.60;;;;;;5002917;28;20651;-72
2023/06/24 09:23:54;;;;;;;6.25;4.25;;;31.50;92.80;;;;;;5001017;28;20217;-73
2023/06/24 09:26:23;;;;;;;4.05;3.67;;;31.00;93.60;;;;;;4995574;28;20646;-74
2023/06/24 09:28:49;;;;;;;4.40;3.83;;;30.90;96.20;;;;;;5000553;28;20248;-72
2023/06/24 09:31:15;;;;;;;4.40;4.00;;;31.10;94.50;;;;;;5006037;28;20228;-73
2023/06/24 09:33:40;;;;;;;8.60;4.50;;;30.00;93.50;;;;;;4998640;28;20620;-72
2023/06/24 09:36:06;;;;;;;6.03;4.05;;;30.20;95.40;;;;;;5004048;28;20235;-73
2023/06/24 09:38:36;;;;;;;6.35;5.20;;;30.20;97.50;;;;;;5001157;28;20185;-72
2023/06/24 09:41:04;;;;;;;4.60;4.13;;;30.10;97.10;;;;;;4984732;28;20200;-73
2023/06/24 09:43:30;;;;;;;4.80;4.40;;;30.10;96.10;;;;;;5000459;28;20277;-73
2023/06/24 09:45:57;;;;;;;4.00;3.28;;;29.80;98.10;;;;;;4984649;28;20201;-73
2023/06/24 09:48:22;;;;;;;3.63;3.33;;;29.40;97.30;;;;;;4989507;28;20202;-72
2023/06/24 09:50:48;;;;;;;3.67;3.17;;;29.10;99.20;;;;;;5003071;28;20274;-72
2023/06/24 09:53:15;;;;;;;5.65;3.70;;;28.70;98.00;;;;;;5010297;28;20308;-72
2023/06/24 09:55:43;;;;;;;6.00;3.40;;;28.60;97.20;;;;;;5001541;28;20212;-72
2023/06/24 09:58:11;;;;;;;6.75;3.60;;;28.40;99.60;;;;;;5001715;28;20571;-72
2023/06/24 10:00:37;;;;;;;4.35;3.60;;;28.40;99.90;;;;;;5004962;28;20233;-73
2023/06/24 10:03:03;;;;;;;5.75;3.65;;;28.50;99.90;;;;;;4998514;28;20289;-72
2023/06/24 10:05:29;;;;;;;3.90;3.50;;;27.80;99.80;;;;;;5002838;28;20609;-73
2023/06/24 10:07:54;;;;;;;4.07;3.67;;;27.90;99.90;;;;;;5002667;28;20189;-72
2023/06/24 10:10:20;;;;;;;4.95;3.50;;;28.10;99.90;;;;;;4985776;28;20201;-72
2023/06/24 10:12:46;;;;;;;3.92;3.17;;;28.00;99.90;;;;;;4999336;28;20215;-72
2023/06/24 10:15:12;;;;;;;3.97;3.55;;;27.90;99.90;;;;;;5004233;28;20284;-72
2023/06/24 10:17:37;;;;;;;4.43;3.75;;;27.90;99.90;;;;;;5000715;28;20232;-72
2023/06/24 10:20:05;;;;;;;6.00;4.03;;;27.80;99.90;;;;;;4985034;28;20283;-72
2023/06/24 10:22:32;;;;;;;6.28;3.80;;;27.60;99.90;;;;;;5000580;28;20244;-72
2023/06/24 10:25:01;;;;;;;4.95;4.45;;;26.90;99.90;;;;;;4999217;28;20209;-72
2023/06/24 10:27:31;;;;;;;6.50;3.67;;;26.60;99.90;;;;;;5002905;28;20263;-73
2023/06/24 10:30:03;;;;;;;5.03;4.03;;;26.70;99.90;;;;;;5006242;28;20210;-73
2023/06/24 10:32:41;;;;;;;4.20;3.78;;;26.50;99.90;;;;;;5003808;28;20734;-72
2023/06/24 10:35:07;;;;;;;4.88;3.63;;;26.70;99.90;;;;;;4999698;28;20281;-72
2023/06/24 10:37:33;;;;;;;4.78;4.00;;;26.60;99.90;;;;;;4982591;28;20280;-72
2023/06/24 10:40:02;;;;;;;4.95;3.90;;;26.70;99.90;;;;;;5001371;28;20296;-72
2023/06/24 10:42:41;;;;;;;4.97;3.85;;;27.00;99.90;;;;;;5000037;28;20209;-73
2023/06/24 10:45:13;;;;;;;4.00;3.60;;;27.20;99.90;;;;;;4982198;28;20209;-72
2023/06/24 10:47:44;;;;;;;4.45;3.95;;;27.20;99.90;;;;;;5044092;23;20223;-71
2023/06/24 10:50:18;;;;;;;5.22;3.83;;;27.40;99.90;;;;;;5031646;28;20213;-72
2023/06/24 10:52:48;;;;;;;5.63;4.05;;;27.60;99.90;;;;;;5031680;28;20250;-71
2023/06/24 10:55:18;;;;;;;4.13;3.72;;;27.40;99.90;;;;;;5029231;28;20207;-71
2023/06/24 10:57:44;;;;;;;4.70;3.90;;;27.40;99.90;;;;;;5019167;28;20720;-71
2023/06/24 11:00:12;;;;;;;4.63;3.95;;;27.20;99.90;;;;;;5018154;28;20215;-71
2023/06/24 11:02:39;;;;;;;6.53;3.50;;;26.80;99.90;;;;;;5021330;28;20193;-71
2023/06/24 11:05:05;;;;;;;10.57;4.68;;;26.80;99.90;;;;;;5018438;28;20173;-71
2023/06/24 11:07:34;;;;;;;5.43;4.22;;;26.80;99.90;;;;;;5024056;28;20227;-70
2023/06/24 11:10:05;;;;;;;4.07;3.75;;;27.00;99.90;;;;;;5023912;28;20236;-71
2023/06/24 11:12:35;;;;;;;3.45;3.08;;;26.90;99.90;;;;;;5026933;28;20204;-69
2023/06/24 11:15:03;;;;;;;8.07;5.50;;;26.50;99.90;;;;;;5022420;28;20677;-72
2023/06/24 11:17:29;;;;;;;6.53;4.50;;;26.30;99.90;;;;;;5019091;28;20731;-70
2023/06/24 11:19:56;;;;;;;4.38;3.45;;;26.50;99.90;;;;;;5020740;28;20224;-69
2023/06/24 11:22:23;;;;;;;5.55;3.40;;;26.40;99.90;;;;;;5024189;28;20211;-69
2023/06/24 11:24:48;;;;;;;3.55;3.25;;;26.60;99.90;;;;;;5019747;28;20219;-70
2023/06/24 11:27:14;;;;;;;4.13;3.72;;;26.70;99.90;;;;;;5023537;28;20573;-70
2023/06/24 11:29:40;;;;;;;7.95;3.90;;;26.80;99.90;;;;;;5020541;28;20252;-70
2023/06/24 11:32:09;;;;;;;6.72;4.13;;;26.60;99.90;;;;;;5021836;28;20524;-71
2023/06/24 11:34:36;;;;;;;4.05;3.65;;;26.50;99.90;;;;;;5022964;28;20196;-72
2023/06/24 11:37:13;;;;;;;4.93;4.35;;;26.30;99.90;;;;;;5020165;28;20212;-71
2023/06/24 11:39:39;;;;;;;5.82;5.10;;;25.90;99.90;;;;;;5019041;28;20200;-70
2023/06/24 11:42:09;;;;;;;5.30;3.88;;;25.80;99.90;;;;;;5016660;28;20224;-70
2023/06/24 11:44:40;;;;;;;7.03;3.97;;;26.00;99.90;;;;;;5028786;28;20192;-71
2023/06/24 11:47:07;;;;;;;7.70;4.15;;;26.10;99.90;;;;;;5021627;28;20228;-70
2023/06/24 11:49:51;;;;;;;7.28;4.20;;;26.10;99.90;;;;;;5022248;28;20538;-70
2023/06/24 11:52:17;;;;;;;6.47;4.90;;;26.10;99.90;;;;;;5019232;28;20200;-70
2023/06/24 11:54:43;;;;;;;5.03;3.38;;;26.20;99.90;;;;;;5023463;28;20206;-70
2023/06/24 11:57:09;;;;;;;5.85;4.25;;;26.30;99.90;;;;;;5023991;28;20197;-70
2023/06/24 11:59:35;;;;;;;7.07;4.20;;;26.30;99.90;;;;;;5022902;28;20226;-71
2023/06/24 12:02:03;;;;;;;7.28;3.85;;;26.30;99.90;;;;;;5023704;28;20172;-70
2023/06/24 12:04:33;;;;;;;4.57;4.13;;;26.30;99.90;;;;;;5023791;28;20559;-70
2023/06/24 12:06:59;;;;;;;4.80;3.85;;;26.30;99.90;;;;;;5029180;28;20209;-70
2023/06/24 12:09:26;;;;;;;4.72;4.10;;;26.20;99.90;;;;;;5029039;28;20279;-70
2023/06/24 12:11:52;;;;;;;9.88;4.60;;;26.30;99.90;;;;;;5024523;28;20208;-70
2023/06/24 12:14:18;;;;;;;7.55;4.47;;;26.40;99.90;;;;;;5025501;28;20655;-69
2023/06/24 12:16:44;;;;;;;4.60;4.18;;;26.40;99.90;;;;;;5020773;28;20709;-69
2023/06/24 12:19:10;;;;;;;5.18;4.57;;;26.40;99.90;;;;;;5024701;28;20204;-70
2023/06/24 12:21:35;;;;;;;5.00;4.10;;;26.40;99.90;;;;;;5028756;28;20238;-70
2023/06/24 12:24:02;;;;;;;4.65;4.15;;;26.30;99.90;;;;;;5023189;28;20254;-70
2023/06/24 12:26:28;;;;;;;7.25;4.25;;;26.10;99.90;;;;;;5028239;28;20172;-70
2023/06/24 12:28:57;;;;;;;4.22;3.60;;;26.10;99.90;;;;;;5029986;28;20220;-69
2023/06/24 12:31:23;;;;;;;4.82;4.18;;;26.00;99.90;;;;;;5024260;28;20224;-70
2023/06/24 12:33:49;;;;;;;5.10;4.07;;;25.90;99.90;;;;;;5023246;28;20208;-68
2023/06/24 12:36:15;;;;;;;4.97;4.18;;;25.70;99.90;;;;;;5024133;28;20561;-68
2023/06/24 12:38:41;;;;;;;6.13;4.22;;;25.70;99.90;;;;;;5026779;28;20168;-70
2023/06/24 12:41:06;;;;;;;4.90;3.92;;;25.70;99.90;;;;;;5025405;28;20294;-70
2023/06/24 12:43:32;;;;;;;7.22;3.67;;;25.70;99.90;;;;;;5025646;28;20211;-70